createdAt,value
2022-12-26T00:01:48.889Z,36.93
2022-12-26T00:04:51.388Z,31.73
2022-12-26T00:07:06.775Z,33.10
2022-12-26T00:09:36.986Z,28.93
2022-12-26T00:12:06.461Z,25.47
2022-12-26T00:14:36.367Z,24.97
2022-12-26T00:17:03.321Z,19.50
2022-12-26T00:19:30.351Z,24.97
2022-12-26T00:21:59.779Z,24.93
2022-12-26T00:24:26.829Z,15.60
2022-12-26T00:26:53.777Z,20.40
2022-12-26T00:29:20.678Z,18.70
2022-12-26T00:31:52.376Z,19.77
2022-12-26T00:34:21.463Z,17.43
2022-12-26T00:36:48.528Z,14.07
2022-12-26T00:39:18.003Z,13.70
2022-12-26T00:41:44.892Z,13.87
2022-12-26T00:44:16.215Z,13.17
2022-12-26T00:46:46.390Z,11.87
2022-12-26T00:49:15.802Z,11.87
2022-12-26T00:51:42.663Z,9.67
2022-12-26T00:54:14.122Z,9.73
2022-12-26T00:56:41.035Z,11.80
2022-12-26T00:59:08.062Z,9.23
2022-12-26T01:01:37.036Z,11.40
2022-12-26T01:04:06.671Z,10.93
2022-12-26T01:06:36.118Z,9.40
2022-12-26T01:09:03.197Z,9.83
2022-12-26T01:11:41.966Z,9.23
2022-12-26T01:14:18.551Z,9.50
2022-12-26T01:16:47.210Z,11.17
2022-12-26T01:19:16.953Z,8.80
2022-12-26T01:21:46.416Z,10.57
2022-12-26T01:24:14.083Z,10.30
2022-12-26T01:26:41.139Z,9.13
2022-12-26T01:29:09.238Z,8.53
2022-12-26T01:31:37.947Z,9.40
2022-12-26T01:34:04.789Z,11.40
2022-12-26T01:36:31.676Z,9.00
2022-12-26T01:38:58.816Z,10.17
2022-12-26T01:41:26.695Z,12.47
2022-12-26T01:44:06.412Z,12.17
2022-12-26T01:46:44.960Z,12.67
2022-12-26T01:49:31.420Z,14.10
2022-12-26T01:52:04.332Z,15.40
2022-12-26T01:54:42.768Z,20.23
2022-12-26T01:57:21.167Z,12.43
2022-12-26T01:59:52.375Z,17.47
2022-12-26T02:02:24.142Z,23.90
2022-12-26T02:05:11.005Z,16.70
2022-12-26T02:07:42.597Z,14.80
2022-12-26T02:10:18.009Z,16.57
2022-12-26T02:12:45.407Z,26.27
2022-12-26T02:15:18.858Z,21.10
2022-12-26T02:17:47.889Z,17.00
2022-12-26T02:20:33.144Z,19.10
2022-12-26T02:23:40.315Z,18.03
2022-12-26T02:26:35.239Z,15.57
2022-12-26T02:29:25.429Z,29.23
2022-12-26T02:32:19.742Z,16.43
2022-12-26T02:35:15.206Z,12.33
2022-12-26T02:38:01.419Z,14.80
2022-12-26T02:41:09.161Z,14.00
2022-12-26T02:44:20.297Z,18.17
2022-12-26T02:47:05.248Z,14.10
2022-12-26T02:50:18.584Z,14.03
2022-12-26T02:53:09.777Z,15.57
2022-12-26T02:56:02.755Z,17.13
2022-12-26T02:58:58.972Z,16.90
2022-12-26T03:02:05.985Z,16.80
2022-12-26T03:04:57.191Z,16.27
2022-12-26T03:07:52.236Z,17.90
2022-12-26T03:10:43.185Z,17.50
2022-12-26T03:13:25.636Z,18.40
2022-12-26T03:16:30.588Z,19.70
2022-12-26T03:19:04.132Z,20.60
2022-12-26T03:21:38.894Z,18.53
2022-12-26T03:24:09.179Z,18.87
2022-12-26T03:26:43.761Z,16.20
2022-12-26T03:29:36.667Z,23.30
2022-12-26T03:32:08.851Z,15.60
2022-12-26T03:34:42.721Z,17.00
2022-12-26T03:37:47.913Z,22.90
2022-12-26T03:41:09.623Z,19.67
2022-12-26T03:44:13.524Z,20.23
2022-12-26T03:47:43.040Z,14.13
2022-12-26T03:51:02.812Z,16.33
2022-12-26T03:54:09.253Z,15.73
2022-12-26T03:57:02.039Z,12.43
2022-12-26T04:00:16.843Z,18.43
2022-12-26T04:03:05.121Z,15.20
2022-12-26T04:05:54.595Z,15.10
2022-12-26T04:08:46.609Z,16.77
2022-12-26T04:11:35.834Z,15.27
2022-12-26T04:15:15.825Z,15.87
2022-12-26T04:18:31.572Z,14.33
2022-12-26T04:22:09.544Z,12.90
2022-12-26T04:25:06.866Z,14.07
2022-12-26T04:27:52.637Z,12.50
2022-12-26T04:30:38.754Z,15.30
2022-12-26T04:33:49.857Z,15.77
2022-12-26T04:36:48.685Z,12.37
2022-12-26T04:39:43.904Z,10.03
2022-12-26T04:42:33.189Z,10.33
2022-12-26T04:45:01.149Z,11.80
2022-12-26T04:47:31.980Z,9.83
2022-12-26T04:50:15.594Z,12.87
2022-12-26T04:52:58.592Z,8.67
2022-12-26T04:55:32.147Z,9.37
2022-12-26T04:58:00.329Z,9.97
2022-12-26T05:00:29.036Z,12.00
2022-12-26T05:03:19.119Z,11.07
2022-12-26T05:06:09.155Z,11.20
2022-12-26T05:09:01.276Z,11.30
2022-12-26T05:11:30.136Z,9.63
2022-12-26T05:14:01.114Z,9.53
2022-12-26T05:16:49.386Z,13.07
2022-12-26T05:19:36.580Z,9.67
2022-12-26T05:22:23.521Z,9.73
2022-12-26T05:25:09.778Z,9.77
2022-12-26T05:28:04.277Z,10.10
2022-12-26T05:30:34.276Z,10.23
2022-12-26T05:33:19.536Z,8.43
2022-12-26T05:35:46.446Z,8.13
2022-12-26T05:38:13.295Z,7.03
2022-12-26T05:40:40.196Z,7.70
2022-12-26T05:43:07.129Z,6.83
2022-12-26T05:45:33.992Z,7.30
2022-12-26T05:48:04.085Z,6.20
2022-12-26T05:50:33.207Z,5.60
2022-12-26T05:53:04.083Z,5.93
2022-12-26T05:55:30.921Z,4.80
2022-12-26T05:58:00.550Z,5.73
2022-12-26T06:00:31.074Z,5.47
2022-12-26T06:03:00.055Z,4.67
2022-12-26T06:05:27.058Z,4.87
2022-12-26T06:07:54.027Z,4.77
2022-12-26T06:10:26.260Z,3.80
2022-12-26T06:12:53.380Z,4.07
2022-12-26T06:15:20.316Z,4.03
2022-12-26T06:17:47.344Z,4.80
2022-12-26T06:20:16.839Z,4.13
2022-12-26T06:22:45.799Z,3.80
2022-12-26T06:25:12.754Z,3.70
2022-12-26T06:27:43.130Z,3.60
2022-12-26T06:30:10.651Z,3.57
2022-12-26T06:32:39.953Z,2.90
2022-12-26T06:35:07.158Z,3.20
2022-12-26T06:37:34.685Z,3.20
2022-12-26T06:40:01.508Z,3.70
2022-12-26T06:42:29.725Z,3.37
2022-12-26T06:45:01.353Z,2.57
2022-12-26T06:47:31.482Z,2.60
2022-12-26T06:50:00.451Z,2.90
2022-12-26T06:52:27.532Z,3.20
2022-12-26T06:54:54.351Z,3.57
2022-12-26T06:57:23.421Z,3.43
2022-12-26T06:59:52.764Z,3.63
2022-12-26T07:02:19.762Z,3.40
2022-12-26T07:04:46.656Z,3.47
2022-12-26T07:07:13.710Z,3.10
2022-12-26T07:09:43.066Z,3.70
2022-12-26T07:12:09.908Z,4.00
2022-12-26T07:14:37.427Z,6.13
2022-12-26T07:17:04.361Z,4.20
2022-12-26T07:19:31.282Z,6.20
2022-12-26T07:21:58.122Z,5.13
2022-12-26T07:24:25.129Z,5.43
2022-12-26T07:26:54.243Z,8.20
2022-12-26T07:29:23.395Z,8.93
2022-12-26T07:31:52.842Z,12.30
2022-12-26T07:34:26.393Z,12.23
2022-12-26T07:36:58.499Z,11.53
2022-12-26T07:39:28.355Z,16.60
2022-12-26T07:41:57.790Z,15.77
2022-12-26T07:44:26.471Z,14.33
2022-12-26T07:46:56.711Z,16.83
2022-12-26T07:49:24.444Z,14.10
2022-12-26T07:51:53.900Z,18.20
2022-12-26T07:54:23.383Z,22.97
2022-12-26T07:56:50.349Z,17.37
2022-12-26T07:59:20.389Z,17.90
2022-12-26T08:01:47.479Z,20.33
2022-12-26T08:04:14.974Z,13.03
2022-12-26T08:06:41.988Z,15.70
2022-12-26T08:09:16.082Z,15.03
2022-12-26T08:11:44.347Z,19.23
2022-12-26T08:14:16.920Z,15.33
2022-12-26T08:16:49.730Z,16.53
2022-12-26T08:19:20.073Z,16.13
2022-12-26T08:21:51.648Z,16.67
2022-12-26T08:24:18.572Z,18.63
2022-12-26T08:26:45.472Z,17.77
2022-12-26T08:29:12.347Z,20.57
2022-12-26T08:31:39.274Z,20.30
2022-12-26T08:34:06.362Z,18.53
2022-12-26T08:36:36.283Z,20.23
2022-12-26T08:39:05.827Z,20.00
2022-12-26T08:41:32.740Z,22.60
2022-12-26T08:44:26.650Z,18.17
2022-12-26T08:46:48.891Z,21.53
2022-12-26T08:49:18.382Z,21.03
2022-12-26T08:51:45.281Z,19.33
2022-12-26T08:54:12.195Z,20.40
2022-12-26T08:56:41.330Z,22.00
2022-12-26T08:59:12.822Z,21.37
2022-12-26T09:01:40.540Z,21.00
2022-12-26T09:04:09.948Z,20.90
2022-12-26T09:06:38.982Z,22.50
2022-12-26T09:09:08.638Z,19.30
2022-12-26T09:11:38.020Z,20.10
2022-12-26T09:14:05.759Z,19.23
2022-12-26T09:16:49.408Z,28.30
2022-12-26T09:19:17.869Z,28.50
2022-12-26T09:21:46.227Z,19.97
2022-12-26T09:24:16.433Z,23.07
2022-12-26T09:26:47.173Z,19.60
2022-12-26T09:29:14.739Z,19.13
2022-12-26T09:31:42.254Z,18.30
2022-12-26T09:34:09.298Z,14.57
2022-12-26T09:36:38.229Z,25.23
2022-12-26T09:39:06.464Z,16.97
2022-12-26T09:42:17.703Z,15.70
2022-12-26T09:45:01.502Z,22.17
2022-12-26T09:47:50.775Z,16.43
2022-12-26T09:50:25.732Z,14.43
2022-12-26T09:53:04.313Z,18.67
2022-12-26T09:56:06.089Z,19.87
2022-12-26T09:58:58.034Z,17.60
2022-12-26T10:01:33.253Z,20.80
2022-12-26T10:04:02.275Z,14.27
2022-12-26T10:06:34.500Z,19.73
2022-12-26T10:09:42.718Z,14.10
2022-12-26T10:12:23.341Z,13.93
2022-12-26T10:15:43.297Z,13.73
2022-12-26T10:18:34.207Z,12.20
2022-12-26T10:21:36.153Z,16.33
2022-12-26T10:24:20.596Z,18.73
2022-12-26T10:27:07.545Z,14.30
2022-12-26T10:29:43.072Z,19.00
2022-12-26T10:32:28.453Z,15.83
2022-12-26T10:34:55.953Z,18.43
2022-12-26T10:37:35.303Z,29.80
2022-12-26T10:40:28.284Z,15.77
2022-12-26T10:43:15.892Z,14.10
2022-12-26T10:46:05.305Z,19.07
2022-12-26T10:48:34.827Z,20.27
2022-12-26T10:51:01.660Z,18.60
2022-12-26T10:53:28.538Z,13.83
2022-12-26T10:55:58.038Z,16.20
2022-12-26T10:58:33.159Z,19.40
2022-12-26T11:01:29.984Z,15.53
2022-12-26T11:04:05.201Z,16.90
2022-12-26T11:06:37.819Z,16.07
2022-12-26T11:09:05.633Z,15.03
2022-12-26T11:11:46.541Z,17.87
2022-12-26T11:14:34.604Z,15.90
2022-12-26T11:17:24.055Z,15.63
2022-12-26T11:20:29.336Z,13.10
2022-12-26T11:23:26.631Z,15.43
2022-12-26T11:25:57.547Z,17.47
2022-12-26T11:28:35.902Z,13.73
2022-12-26T11:31:07.653Z,14.60
2022-12-26T11:33:45.456Z,9.77
2022-12-26T11:36:26.523Z,10.17
2022-12-26T11:38:56.980Z,10.20
2022-12-26T11:41:32.542Z,13.07
2022-12-26T11:44:02.428Z,10.27
2022-12-26T11:47:13.010Z,10.87
2022-12-26T11:50:24.578Z,11.87
2022-12-26T11:52:55.634Z,8.20
2022-12-26T11:55:37.323Z,8.90
2022-12-26T11:58:10.006Z,11.73
2022-12-26T12:01:05.904Z,8.03
2022-12-26T12:03:49.285Z,7.10
2022-12-26T12:06:41.406Z,10.90
2022-12-26T12:09:30.903Z,7.53
2022-12-26T12:12:48.317Z,7.77
2022-12-26T12:15:38.816Z,11.67
2022-12-26T12:18:33.399Z,6.57
2022-12-26T12:22:04.902Z,7.33
2022-12-26T12:25:05.545Z,6.93
2022-12-26T12:27:54.945Z,6.33
2022-12-26T12:30:35.643Z,6.53
2022-12-26T12:33:29.844Z,5.60
2022-12-26T12:36:14.753Z,10.70
2022-12-26T12:39:20.620Z,9.80
2022-12-26T12:42:11.027Z,5.00
2022-12-26T12:44:56.924Z,9.77
2022-12-26T12:47:37.811Z,6.33
2022-12-26T12:50:13.627Z,10.07
2022-12-26T12:53:04.116Z,7.27
2022-12-26T12:56:04.982Z,9.60
2022-12-26T12:58:57.060Z,9.73
2022-12-26T13:01:43.234Z,10.80
2022-12-26T13:04:27.541Z,9.43
2022-12-26T13:07:05.901Z,5.93
2022-12-26T13:09:52.619Z,10.73
2022-12-26T13:12:49.077Z,6.10
2022-12-26T13:15:33.929Z,8.50
2022-12-26T13:18:18.688Z,4.60
2022-12-26T13:20:55.366Z,5.37
2022-12-26T13:24:14.830Z,5.90
2022-12-26T13:26:55.588Z,4.83
2022-12-26T13:29:31.781Z,4.40
2022-12-26T13:32:00.802Z,4.43
2022-12-26T13:34:31.199Z,3.97
2022-12-26T13:37:00.856Z,4.70
2022-12-26T13:39:30.739Z,4.07
2022-12-26T13:42:28.379Z,5.50
2022-12-26T13:44:55.749Z,11.83
2022-12-26T13:47:38.976Z,3.20
2022-12-26T13:50:55.699Z,3.57
2022-12-26T13:53:26.567Z,3.57
2022-12-26T13:56:02.615Z,6.53
2022-12-26T13:58:32.833Z,2.50
2022-12-26T14:01:14.576Z,4.73
2022-12-26T14:04:09.176Z,11.93
2022-12-26T14:06:57.455Z,5.53
2022-12-26T14:10:11.500Z,4.80
2022-12-26T14:13:11.730Z,7.63
2022-12-26T14:15:52.191Z,3.67
2022-12-26T14:18:47.431Z,6.97
2022-12-26T14:21:47.289Z,6.83
2022-12-26T14:24:31.829Z,1.80
2022-12-26T14:27:45.043Z,3.97
2022-12-26T14:30:58.974Z,1.27
2022-12-26T14:34:10.662Z,1.93
2022-12-26T14:37:11.375Z,6.03
2022-12-26T14:40:08.791Z,3.17
2022-12-26T14:43:13.889Z,0.97
2022-12-26T14:45:51.771Z,3.13
2022-12-26T14:48:18.863Z,0.70
2022-12-26T14:50:48.331Z,8.67
2022-12-26T14:53:32.814Z,2.17
2022-12-26T14:56:33.677Z,1.80
2022-12-26T14:59:32.556Z,1.50
2022-12-26T15:02:22.251Z,0.80
2022-12-26T15:05:20.246Z,0.70
2022-12-26T15:08:38.309Z,3.23
2022-12-26T15:11:20.254Z,1.77
2022-12-26T15:14:20.970Z,0.80
2022-12-26T15:17:16.957Z,2.20
2022-12-26T15:20:51.145Z,10.67
2022-12-26T15:23:50.654Z,1.57
2022-12-26T15:26:39.532Z,4.43
2022-12-26T15:29:28.201Z,3.33
2022-12-26T15:32:19.364Z,3.27
2022-12-26T15:34:52.716Z,1.73
2022-12-26T15:37:44.151Z,1.07
2022-12-26T15:40:36.946Z,1.10
2022-12-26T15:43:36.185Z,5.20
2022-12-26T15:47:03.780Z,4.07
2022-12-26T15:50:23.856Z,4.00
2022-12-26T15:53:08.178Z,3.97
2022-12-26T15:55:49.909Z,5.00
2022-12-26T15:59:07.437Z,3.53
2022-12-26T16:01:45.669Z,1.90
2022-12-26T16:04:33.241Z,2.80
2022-12-26T16:07:27.176Z,2.10
2022-12-26T16:09:56.357Z,5.90
2022-12-26T16:12:35.743Z,7.63
2022-12-26T16:15:17.830Z,5.70
2022-12-26T16:17:48.860Z,3.83
2022-12-26T16:20:43.367Z,4.90
2022-12-26T16:23:19.547Z,3.20
2022-12-26T16:25:55.409Z,3.83
2022-12-26T16:28:39.984Z,6.93
2022-12-26T16:31:08.080Z,7.50
2022-12-26T16:33:41.158Z,8.00
2022-12-26T16:36:11.080Z,13.33
2022-12-26T16:38:38.421Z,15.77
2022-12-26T16:41:26.681Z,8.87
2022-12-26T16:43:58.192Z,14.83
2022-12-26T16:46:30.908Z,11.13
2022-12-26T16:49:03.201Z,13.53
2022-12-26T16:51:48.870Z,8.50
2022-12-26T16:54:24.325Z,5.93
2022-12-26T16:56:56.108Z,4.87
2022-12-26T16:59:38.835Z,19.73
2022-12-26T17:02:06.412Z,7.40
2022-12-26T17:04:33.517Z,13.67
2022-12-26T17:07:07.740Z,11.53
2022-12-26T17:09:49.606Z,12.83
2022-12-26T17:12:24.010Z,10.00
2022-12-26T17:14:52.515Z,10.87
2022-12-26T17:17:22.441Z,7.57
2022-12-26T17:20:09.612Z,8.37
2022-12-26T17:22:37.800Z,14.03
2022-12-26T17:25:35.053Z,8.80
2022-12-26T17:28:12.240Z,4.67
2022-12-26T17:30:44.072Z,12.13
2022-12-26T17:33:22.123Z,22.00
2022-12-26T17:38:52.070Z,11.05
2022-12-26T17:41:19.400Z,22.17
2022-12-26T17:43:47.368Z,17.03
2022-12-26T17:46:17.447Z,16.13
2022-12-26T17:48:47.211Z,12.80
2022-12-26T17:51:18.732Z,17.60
2022-12-26T17:53:51.331Z,6.50
2022-12-26T17:56:27.200Z,12.20
2022-12-26T17:58:55.509Z,13.07
2022-12-26T18:01:22.724Z,24.27
2022-12-26T18:03:52.033Z,18.03
2022-12-26T18:06:19.880Z,9.63
2022-12-26T18:08:46.751Z,5.00
2022-12-26T18:11:14.815Z,20.17
2022-12-26T18:13:43.110Z,12.10
2022-12-26T18:16:17.197Z,5.60
2022-12-26T18:18:46.082Z,16.10
2022-12-26T18:21:15.507Z,3.77
2022-12-26T18:23:42.705Z,11.50
2022-12-26T18:26:25.585Z,19.93
2022-12-26T18:28:52.837Z,21.73
2022-12-26T18:31:22.457Z,10.43
2022-12-26T18:33:53.945Z,19.67
2022-12-26T18:36:32.230Z,13.63
2022-12-26T18:38:59.792Z,15.20
2022-12-26T18:41:27.085Z,16.10
2022-12-26T18:43:54.279Z,12.70
2022-12-26T18:46:26.740Z,15.63
2022-12-26T18:48:56.597Z,26.37
2022-12-26T18:51:27.978Z,22.63
2022-12-26T18:53:55.088Z,12.23
2022-12-26T18:56:23.482Z,11.87
2022-12-26T18:58:57.369Z,16.83
2022-12-26T19:01:27.196Z,14.60
2022-12-26T19:03:55.146Z,14.93
2022-12-26T19:06:27.825Z,10.30
2022-12-26T19:08:55.153Z,20.53
2022-12-26T19:11:27.725Z,19.63
2022-12-26T19:13:57.258Z,16.40
2022-12-26T19:16:24.200Z,21.23
2022-12-26T19:18:53.627Z,21.30
2022-12-26T19:21:23.956Z,11.73
2022-12-26T19:23:52.895Z,12.23
2022-12-26T19:26:20.486Z,25.60
2022-12-26T19:28:58.985Z,15.03
2022-12-26T19:31:27.979Z,18.63
2022-12-26T19:34:01.931Z,20.20
2022-12-26T19:36:28.945Z,16.03
2022-12-26T19:38:55.873Z,20.77
2022-12-26T19:41:22.772Z,29.47
2022-12-26T19:43:57.068Z,16.87
2022-12-26T19:46:26.997Z,20.03
2022-12-26T19:48:54.687Z,12.17
2022-12-26T19:51:22.630Z,16.07
2022-12-26T19:53:49.956Z,12.57
2022-12-26T19:56:21.840Z,14.70
2022-12-26T19:58:55.956Z,25.27
2022-12-26T20:01:30.304Z,10.47
2022-12-26T20:04:04.266Z,10.97
2022-12-26T20:06:37.756Z,13.43
2022-12-26T20:09:13.146Z,15.17
2022-12-26T20:11:45.910Z,16.77
2022-12-26T20:14:23.023Z,23.17
2022-12-26T20:17:07.135Z,19.30
2022-12-26T20:19:37.478Z,13.03
2022-12-26T20:22:06.024Z,20.53
2022-12-26T20:24:36.960Z,15.63
2022-12-26T20:27:04.821Z,21.67
2022-12-26T20:29:37.824Z,9.43
2022-12-26T20:32:04.899Z,15.27
2022-12-26T20:34:31.805Z,14.53
2022-12-26T20:36:58.860Z,11.63
2022-12-26T20:39:25.769Z,19.57
2022-12-26T20:41:55.343Z,20.93
2022-12-26T20:44:25.337Z,7.43
2022-12-26T20:46:55.157Z,16.83
2022-12-26T20:49:22.133Z,18.30
2022-12-26T20:51:51.373Z,8.53
2022-12-26T20:54:18.502Z,12.97
2022-12-26T20:56:45.835Z,14.07
2022-12-26T20:59:12.963Z,10.37
2022-12-26T21:01:40.455Z,24.77
2022-12-26T21:04:18.599Z,5.47
2022-12-26T21:06:47.280Z,10.63
2022-12-26T21:09:17.021Z,4.20
2022-12-26T21:11:46.798Z,10.27
2022-12-26T21:14:18.818Z,13.50
2022-12-26T21:16:53.510Z,8.97
2022-12-26T21:19:23.556Z,24.53
2022-12-26T21:21:53.879Z,18.10
2022-12-26T21:24:29.470Z,8.63
2022-12-26T21:26:57.179Z,7.73
2022-12-26T21:29:30.678Z,18.60
2022-12-26T21:32:04.949Z,14.97
2022-12-26T21:34:35.214Z,21.37
2022-12-26T21:37:21.549Z,13.90
2022-12-26T21:39:49.674Z,13.30
2022-12-26T21:42:19.142Z,8.70
2022-12-26T21:44:48.552Z,16.03
2022-12-26T21:47:15.444Z,17.60
2022-12-26T21:49:42.318Z,20.27
2022-12-26T21:52:13.382Z,9.83
2022-12-26T21:55:18.598Z,6.67
2022-12-26T21:57:47.823Z,7.20
2022-12-26T22:00:15.360Z,15.40
2022-12-26T22:03:00.528Z,15.90
2022-12-26T22:05:29.941Z,17.83
2022-12-26T22:08:04.674Z,9.40
2022-12-26T22:10:55.040Z,8.77
2022-12-26T22:13:27.170Z,15.40
2022-12-26T22:16:07.634Z,17.07
2022-12-26T22:18:47.159Z,14.90
2022-12-26T22:21:22.374Z,6.70
2022-12-26T22:23:52.676Z,10.90
2022-12-26T22:26:23.441Z,6.97
2022-12-26T22:28:55.996Z,8.60
2022-12-26T22:31:27.370Z,12.60
2022-12-26T22:34:07.400Z,13.47
2022-12-26T22:36:40.333Z,7.77
2022-12-26T22:39:08.009Z,6.03
2022-12-26T22:41:35.076Z,6.60
2022-12-26T22:44:05.032Z,18.23
2022-12-26T22:46:34.907Z,18.90
2022-12-26T22:49:01.809Z,10.23
2022-12-26T22:51:28.885Z,8.97
2022-12-26T22:54:00.884Z,9.57
2022-12-26T22:56:29.043Z,8.53
2022-12-26T22:59:04.007Z,12.50
2022-12-26T23:01:31.335Z,12.87
2022-12-26T23:04:00.809Z,6.87
2022-12-26T23:06:34.985Z,6.80
2022-12-26T23:09:07.115Z,10.23
2022-12-26T23:11:36.456Z,8.27
2022-12-26T23:14:05.887Z,18.67
2022-12-26T23:16:51.111Z,11.67
2022-12-26T23:20:13.466Z,18.40
2022-12-26T23:22:43.173Z,4.73
2022-12-26T23:25:16.460Z,15.53
2022-12-26T23:28:02.182Z,4.50
2022-12-26T23:30:31.234Z,9.53
2022-12-26T23:33:01.274Z,6.03
2022-12-26T23:35:31.138Z,10.33
2022-12-26T23:37:58.247Z,15.33
2022-12-26T23:40:28.142Z,13.00
2022-12-26T23:42:57.393Z,4.43
2022-12-26T23:45:26.417Z,9.53
2022-12-26T23:47:55.747Z,15.10
2022-12-26T23:50:23.097Z,5.73
2022-12-26T23:52:52.473Z,6.03
2022-12-26T23:55:21.515Z,8.73
2022-12-26T23:57:50.883Z,11.63
